Terminal Aerodrome Forecast
Issued by NWS

Home | Current Version | Previous Version | Graphics & Text | Print | Product List | Glossary On
Versions: 1 2 3 4 5 6 7 8 9 10 11 12 13 14 15 16 17 18 19 20 21 22 23 24 25 26 27 28 29
095
FTUS43 KTOP 252341
TAFFOE
TAF
KFOE 252341Z 2600/2624 12005KT P6SM SCT050
     FM260700 12003KT 5SM BR BKN012
     FM260900 10003KT 4SM BR VCTS BKN010 OVC040CB
     FM261400 11010KT P6SM BKN012
     FM261800 12012KT P6SM SCT030=

USA.gov is the U.S. government's official web portal to all federal, state and local government web resources and services.